Time;durP1;ratioP1;P1;durP2;ratioP2;P2;SDS_P1;SDS_P2;PMS_P1;PMS_P2;Temp;Humidity;BMP_temperature;BMP_pressure;BME280_temperature;BME280_humidity;BME280_pressure;Samples;Min_cycle;Max_cycle;Signal;HPM_P1;HPM_P2
2022/11/22 05:01:18;;;;;;;11.10;4.60;;;1.00;99.90;;;;;;5491027;23;20294;-68
2022/11/22 05:03:45;;;;;;;3.30;2.35;;;1.00;99.90;;;;;;4913901;29;20209;-68
2022/11/22 05:06:13;;;;;;;2.38;2.22;;;1.00;99.90;;;;;;4913123;29;20214;-68
2022/11/22 05:08:40;;;;;;;4.07;3.80;;;1.10;99.90;;;;;;4915612;29;20325;-68
2022/11/22 05:11:07;;;;;;;2.08;1.92;;;1.10;99.90;;;;;;4922728;29;20234;-68
2022/11/22 05:13:35;;;;;;;2.33;2.22;;;1.10;99.90;;;;;;4915135;29;20216;-68
2022/11/22 05:16:04;;;;;;;4.57;4.18;;;1.10;99.90;;;;;;4937952;23;20246;-71
2022/11/22 05:18:32;;;;;;;2.47;1.52;;;1.10;99.90;;;;;;4916018;29;20213;-69
2022/11/22 05:21:03;;;;;;;4.68;3.25;;;1.10;99.90;;;;;;4920098;29;20204;-69
2022/11/22 05:26:14;;;;;;;3.42;3.33;;;1.10;99.90;;;;;;4914905;29;20226;-69
2022/11/22 05:28:41;;;;;;;2.85;2.38;;;1.20;99.90;;;;;;4915434;29;20237;-69
2022/11/22 05:31:09;;;;;;;1.50;1.40;;;1.20;99.90;;;;;;4915115;29;20237;-67
2022/11/22 05:33:39;;;;;;;2.42;2.33;;;1.20;99.90;;;;;;4909120;29;20226;-67
2022/11/22 05:36:07;;;;;;;2.28;2.13;;;1.20;99.90;;;;;;4909321;29;20237;-69
2022/11/22 05:38:36;;;;;;;3.20;3.20;;;1.20;99.90;;;;;;4915186;29;20584;-68
2022/11/22 05:41:03;;;;;;;2.92;2.80;;;1.30;99.90;;;;;;4893484;29;20312;-69
2022/11/22 05:43:30;;;;;;;6.72;4.25;;;1.30;99.90;;;;;;4914464;29;20686;-67
2022/11/22 05:46:04;;;;;;;2.95;1.13;;;1.30;99.90;;;;;;4915037;29;20313;-70
2022/11/22 05:48:31;;;;;;;1.02;1.02;;;1.30;99.90;;;;;;4915164;29;20273;-70
2022/11/22 05:51:03;;;;;;;4.65;4.25;;;1.30;99.90;;;;;;4914717;29;20211;-69
2022/11/22 05:53:30;;;;;;;1.70;1.60;;;1.30;99.90;;;;;;4910479;29;20218;-70
2022/11/22 05:55:57;;;;;;;4.45;3.95;;;1.30;99.90;;;;;;4907197;29;20319;-70
2022/11/22 05:58:24;;;;;;;4.72;4.25;;;1.40;99.90;;;;;;4914929;29;20577;-70
2022/11/22 06:00:50;;;;;;;3.72;2.97;;;1.40;99.90;;;;;;4914966;29;20236;-70
2022/11/22 06:03:17;;;;;;;1.35;1.25;;;1.40;99.90;;;;;;4914878;29;20552;-69
2022/11/22 06:05:50;;;;;;;0.95;0.93;;;1.40;99.90;;;;;;4915052;29;20233;-69
2022/11/22 06:08:18;;;;;;;2.03;2.03;;;1.40;99.90;;;;;;4914851;29;20241;-69
2022/11/22 06:10:45;;;;;;;3.78;3.47;;;1.40;99.90;;;;;;4902903;29;20207;-72
2022/11/22 06:13:12;;;;;;;1.85;1.65;;;1.40;99.90;;;;;;4914214;29;20210;-69
2022/11/22 06:15:38;;;;;;;3.72;1.73;;;1.40;99.90;;;;;;4914162;29;20249;-69
2022/11/22 06:18:05;;;;;;;5.28;5.07;;;1.50;99.90;;;;;;4914556;29;20234;-68
2022/11/22 06:20:32;;;;;;;10.85;2.60;;;1.50;99.90;;;;;;4914624;29;20210;-69
2022/11/22 06:22:59;;;;;;;3.80;3.55;;;1.50;99.90;;;;;;4909283;29;20207;-69
2022/11/22 06:25:27;;;;;;;4.45;3.97;;;1.50;99.90;;;;;;4904984;29;20232;-69
2022/11/22 06:27:54;;;;;;;1.30;1.30;;;1.50;99.90;;;;;;4913687;29;20282;-70
2022/11/22 06:30:20;;;;;;;3.80;2.45;;;1.40;99.90;;;;;;4914422;29;20217;-70
2022/11/22 06:32:47;;;;;;;3.95;3.70;;;1.40;99.90;;;;;;4913660;29;20225;-68
2022/11/22 06:35:14;;;;;;;7.15;6.68;;;1.40;99.90;;;;;;4914613;29;20548;-69
2022/11/22 06:37:40;;;;;;;8.48;3.72;;;1.40;99.90;;;;;;4914287;29;20572;-69
2022/11/22 06:40:10;;;;;;;4.60;3.97;;;1.40;99.90;;;;;;4909243;29;20598;-67
2022/11/22 06:42:38;;;;;;;2.50;2.33;;;1.40;99.90;;;;;;4913792;29;20224;-69
2022/11/22 06:45:06;;;;;;;0.68;0.68;;;1.40;99.90;;;;;;4914179;29;20238;-69
2022/11/22 06:47:32;;;;;;;3.10;2.97;;;1.40;99.90;;;;;;4914443;29;20233;-69
2022/11/22 06:49:59;;;;;;;3.88;3.53;;;1.40;99.90;;;;;;4914588;29;20218;-69
2022/11/22 06:52:26;;;;;;;2.80;2.00;;;1.40;99.90;;;;;;4910249;29;20314;-69
2022/11/22 06:54:53;;;;;;;1.27;1.20;;;1.40;99.90;;;;;;4913333;29;20233;-69
2022/11/22 06:57:21;;;;;;;2.88;2.85;;;1.40;99.90;;;;;;4911656;29;20217;-70
2022/11/22 06:59:49;;;;;;;3.17;1.77;;;1.40;99.90;;;;;;4914324;29;20302;-69
2022/11/22 07:02:15;;;;;;;2.72;2.63;;;1.40;99.90;;;;;;4914125;29;20213;-69
2022/11/22 07:04:42;;;;;;;1.30;1.30;;;1.40;99.90;;;;;;4916587;29;20741;-69
2022/11/22 07:07:09;;;;;;;2.50;2.33;;;1.40;99.90;;;;;;4907515;29;20218;-69
2022/11/22 07:09:37;;;;;;;3.00;2.90;;;1.40;99.90;;;;;;4900616;29;20210;-72
2022/11/22 07:12:04;;;;;;;3.17;3.00;;;1.50;99.90;;;;;;4915081;29;20306;-70
2022/11/22 07:14:30;;;;;;;4.18;4.03;;;1.40;99.90;;;;;;4913292;29;20261;-69
2022/11/22 07:16:58;;;;;;;11.25;5.10;;;1.40;99.90;;;;;;4914088;29;20273;-70
2022/11/22 07:19:25;;;;;;;5.05;4.63;;;1.50;99.90;;;;;;4914328;29;20217;-71
2022/11/22 07:21:52;;;;;;;5.05;4.80;;;1.50;99.90;;;;;;4904445;29;20214;-70
2022/11/22 07:24:19;;;;;;;5.97;5.65;;;1.50;99.90;;;;;;4911715;29;20231;-69
2022/11/22 07:26:45;;;;;;;6.20;2.97;;;1.50;99.90;;;;;;4903369;29;20376;-70
2022/11/22 07:29:12;;;;;;;5.10;3.22;;;1.50;99.90;;;;;;4914051;29;20237;-71
2022/11/22 07:31:39;;;;;;;5.57;5.07;;;1.50;99.90;;;;;;4900484;29;20229;-70
2022/11/22 07:34:07;;;;;;;6.95;4.38;;;1.50;99.90;;;;;;4900374;29;20215;-69
2022/11/22 07:36:34;;;;;;;2.80;2.70;;;1.50;99.90;;;;;;4912062;29;20369;-70
2022/11/22 07:39:03;;;;;;;8.63;4.60;;;1.60;99.90;;;;;;4914336;29;20229;-68
2022/11/22 07:41:29;;;;;;;10.60;3.53;;;1.60;99.90;;;;;;4917016;29;20220;-69
2022/11/22 07:43:56;;;;;;;2.15;2.05;;;1.60;99.90;;;;;;4917004;29;20216;-70
2022/11/22 07:46:25;;;;;;;3.15;3.03;;;1.60;99.90;;;;;;4908280;29;20709;-69
2022/11/22 07:48:51;;;;;;;4.22;2.70;;;1.60;99.90;;;;;;4917317;29;20229;-69
2022/11/22 07:51:20;;;;;;;12.02;6.05;;;1.60;99.90;;;;;;4916890;29;20211;-70
2022/11/22 07:53:46;;;;;;;5.72;3.17;;;1.60;99.90;;;;;;4916963;29;20593;-70
2022/11/22 07:56:14;;;;;;;3.15;3.15;;;1.60;99.90;;;;;;4916608;29;20746;-69
2022/11/22 07:58:40;;;;;;;3.85;3.22;;;1.60;99.90;;;;;;4917369;29;20246;-69
2022/11/22 08:01:08;;;;;;;7.50;5.53;;;1.60;99.90;;;;;;4900335;29;20210;-70
2022/11/22 08:03:36;;;;;;;2.95;2.75;;;1.70;99.90;;;;;;4916324;29;20213;-69
2022/11/22 08:06:04;;;;;;;4.75;4.35;;;1.70;99.90;;;;;;4916489;29;20230;-70
2022/11/22 08:08:32;;;;;;;3.95;3.30;;;1.70;99.90;;;;;;4916914;29;20249;-71
2022/11/22 08:10:59;;;;;;;6.75;4.82;;;1.70;99.90;;;;;;4916542;29;20218;-70
2022/11/22 08:13:26;;;;;;;5.35;2.80;;;1.70;99.90;;;;;;4914001;29;20214;-69
2022/11/22 08:15:54;;;;;;;10.32;5.68;;;1.70;99.90;;;;;;4907328;29;20234;-70
2022/11/22 08:18:21;;;;;;;4.82;4.20;;;1.70;99.90;;;;;;4912017;29;20210;-70
2022/11/22 08:20:47;;;;;;;7.43;4.70;;;1.70;99.90;;;;;;4909485;29;20795;-69
2022/11/22 08:23:14;;;;;;;7.80;7.20;;;1.70;99.90;;;;;;4899377;29;20588;-68
2022/11/22 08:25:42;;;;;;;14.00;3.80;;;1.70;99.90;;;;;;4916073;29;20223;-71
2022/11/22 08:28:09;;;;;;;3.10;3.03;;;1.80;99.90;;;;;;4909115;29;20568;-70
2022/11/22 08:30:36;;;;;;;2.42;2.35;;;1.80;99.90;;;;;;4916127;29;20209;-71
2022/11/22 08:33:02;;;;;;;3.90;3.67;;;1.80;99.90;;;;;;4915903;29;20215;-70
2022/11/22 08:35:29;;;;;;;4.85;4.40;;;1.70;99.90;;;;;;4916419;29;20606;-71
2022/11/22 08:37:56;;;;;;;5.22;4.78;;;1.70;99.90;;;;;;4916055;29;20220;-72
2022/11/22 08:40:23;;;;;;;3.17;2.85;;;1.70;99.90;;;;;;4916545;29;20215;-71
2022/11/22 08:42:53;;;;;;;2.45;2.42;;;1.70;99.90;;;;;;4905657;29;20546;-71
2022/11/22 08:45:20;;;;;;;2.60;2.40;;;1.70;99.90;;;;;;4916278;29;20230;-72
2022/11/22 08:47:47;;;;;;;2.53;1.92;;;1.70;99.90;;;;;;4916093;29;20679;-71
2022/11/22 08:50:14;;;;;;;6.53;5.75;;;1.70;99.90;;;;;;4916341;29;20213;-71
2022/11/22 08:52:41;;;;;;;3.92;3.20;;;1.80;99.90;;;;;;4915670;29;20599;-71
2022/11/22 08:55:08;;;;;;;3.67;3.58;;;1.80;99.90;;;;;;4916453;29;20257;-71
2022/11/22 08:57:35;;;;;;;2.60;1.67;;;1.70;99.90;;;;;;4910464;29;20229;-71
2022/11/22 09:00:05;;;;;;;1.85;1.23;;;1.80;99.90;;;;;;4918039;29;20252;-71
2022/11/22 09:02:31;;;;;;;1.92;1.92;;;1.80;99.90;;;;;;4915998;29;20230;-71
2022/11/22 09:04:58;;;;;;;2.40;2.40;;;1.80;99.90;;;;;;4916123;29;20235;-72
2022/11/22 09:07:25;;;;;;;3.55;3.42;;;1.80;99.90;;;;;;4915644;29;20218;-71
2022/11/22 09:09:51;;;;;;;6.93;2.88;;;1.80;99.90;;;;;;4913634;29;20245;-71
2022/11/22 09:12:18;;;;;;;9.57;3.33;;;1.80;99.90;;;;;;4915926;29;20648;-71
2022/11/22 09:14:45;;;;;;;7.05;4.40;;;1.80;99.90;;;;;;4915511;29;20245;-72
2022/11/22 09:17:13;;;;;;;5.40;3.53;;;1.80;99.90;;;;;;4915946;29;20238;-71
2022/11/22 09:19:39;;;;;;;6.38;5.78;;;1.80;99.90;;;;;;4915724;29;20221;-71
2022/11/22 09:22:06;;;;;;;2.53;2.42;;;1.90;99.90;;;;;;4915571;29;20595;-72
2022/11/22 09:24:33;;;;;;;6.00;3.10;;;1.90;99.90;;;;;;4905706;29;20238;-72
2022/11/22 09:26:59;;;;;;;3.97;3.60;;;1.90;99.90;;;;;;4915923;29;20207;-71
2022/11/22 09:29:26;;;;;;;3.03;2.85;;;1.90;99.90;;;;;;4915849;29;20567;-71
2022/11/22 09:31:54;;;;;;;2.95;2.78;;;1.90;99.90;;;;;;4915707;29;20211;-72
2022/11/22 09:34:22;;;;;;;4.47;1.70;;;1.90;99.90;;;;;;4899869;29;20933;-71
2022/11/22 09:36:49;;;;;;;6.10;5.10;;;1.90;99.90;;;;;;4909526;29;20316;-71
2022/11/22 09:39:16;;;;;;;6.93;3.65;;;1.90;99.90;;;;;;4912748;29;20202;-71
2022/11/22 09:42:15;;;;;;;5.18;4.85;;;1.90;99.90;;;;;;4916236;29;20212;-71
2022/11/22 09:45:01;;;;;;;5.10;4.43;;;1.90;99.90;;;;;;4915417;29;20237;-70
2022/11/22 09:47:38;;;;;;;3.75;3.42;;;1.90;99.90;;;;;;4916192;29;20211;-71
2022/11/22 09:50:13;;;;;;;7.80;5.43;;;2.00;99.90;;;;;;4915861;29;20234;-71
2022/11/22 09:52:46;;;;;;;5.30;4.70;;;2.00;99.90;;;;;;4899891;29;20214;-71
2022/11/22 09:55:22;;;;;;;3.85;3.65;;;2.00;99.90;;;;;;4915362;29;20231;-70
2022/11/22 09:57:52;;;;;;;3.22;3.13;;;2.00;99.90;;;;;;4905994;29;20214;-70
2022/11/22 10:00:21;;;;;;;5.10;4.65;;;2.00;99.90;;;;;;4911685;29;20207;-71
2022/11/22 10:02:54;;;;;;;2.63;2.63;;;2.10;99.90;;;;;;4914488;29;20675;-72
2022/11/22 10:05:26;;;;;;;2.55;1.30;;;2.10;99.90;;;;;;4914943;29;20234;-72
2022/11/22 10:07:59;;;;;;;5.22;3.33;;;2.10;99.90;;;;;;4908841;29;20564;-72
2022/11/22 10:10:34;;;;;;;4.13;3.80;;;2.10;99.90;;;;;;4914954;29;20216;-72
2022/11/22 10:13:05;;;;;;;2.72;2.58;;;2.00;99.90;;;;;;4914529;29;20240;-72
2022/11/22 10:15:39;;;;;;;6.72;4.70;;;2.10;99.90;;;;;;4914715;29;20317;-71
2022/11/22 10:18:14;;;;;;;4.47;2.92;;;2.10;99.90;;;;;;4916177;29;20233;-71
2022/11/22 10:20:44;;;;;;;1.90;1.85;;;2.10;99.90;;;;;;4916169;29;20583;-70
2022/11/22 10:23:18;;;;;;;10.73;5.45;;;2.10;99.90;;;;;;4897342;29;20217;-71
2022/11/22 10:25:47;;;;;;;5.30;4.32;;;2.10;99.90;;;;;;4900753;29;20234;-71
2022/11/22 10:28:18;;;;;;;8.98;5.57;;;2.10;99.90;;;;;;4915220;29;20210;-71
2022/11/22 10:30:54;;;;;;;5.47;4.85;;;2.20;99.90;;;;;;4898715;29;20238;-71
2022/11/22 10:33:26;;;;;;;3.78;3.58;;;2.20;99.90;;;;;;4903476;29;20211;-71
2022/11/22 10:36:12;;;;;;;6.03;3.50;;;2.30;99.90;;;;;;4911539;29;20569;-69
2022/11/22 10:38:54;;;;;;;5.05;2.47;;;2.30;99.90;;;;;;4911735;29;20233;-71
2022/11/22 10:41:34;;;;;;;3.65;3.45;;;2.30;99.90;;;;;;4908577;29;20208;-71
2022/11/22 10:44:13;;;;;;;8.85;4.93;;;2.20;99.90;;;;;;4898218;29;20209;-70
2022/11/22 10:46:54;;;;;;;4.78;2.47;;;2.30;99.90;;;;;;4900820;29;20214;-71
2022/11/22 10:49:28;;;;;;;6.63;3.30;;;2.30;99.90;;;;;;4916585;29;20241;-71
2022/11/22 10:52:04;;;;;;;7.03;5.25;;;2.40;99.90;;;;;;4916567;29;20218;-71
2022/11/22 10:54:42;;;;;;;3.03;2.05;;;2.40;99.90;;;;;;4915243;29;20245;-71
2022/11/22 10:57:17;;;;;;;3.50;3.28;;;2.40;99.90;;;;;;4907737;29;20219;-71
2022/11/22 11:00:01;;;;;;;2.38;2.28;;;2.40;99.90;;;;;;4901539;29;20213;-70
2022/11/22 11:02:47;;;;;;;5.88;5.47;;;2.40;99.90;;;;;;4915191;29;20221;-70
2022/11/22 11:05:18;;;;;;;1.15;1.15;;;2.40;99.90;;;;;;4914997;29;20237;-71
2022/11/22 11:07:49;;;;;;;3.17;3.08;;;2.40;99.90;;;;;;4914210;29;20225;-71
2022/11/22 11:10:19;;;;;;;2.58;2.35;;;2.40;99.90;;;;;;4907391;29;20242;-71
2022/11/22 11:12:50;;;;;;;3.65;3.45;;;2.40;99.90;;;;;;4913794;29;20223;-71
2022/11/22 11:15:20;;;;;;;7.10;6.53;;;2.40;99.90;;;;;;4940862;23;20241;-69
2022/11/22 11:17:51;;;;;;;6.03;5.25;;;2.40;99.90;;;;;;4936999;29;20229;-71
2022/11/22 11:20:23;;;;;;;6.68;4.18;;;2.50;99.90;;;;;;4936966;29;20217;-71
2022/11/22 11:22:51;;;;;;;0.82;0.82;;;2.50;99.90;;;;;;4935953;29;20213;-69
2022/11/22 11:25:29;;;;;;;2.70;1.95;;;2.60;99.90;;;;;;4928016;29;20231;-69
2022/11/22 11:27:58;;;;;;;8.50;3.53;;;2.50;99.90;;;;;;4928998;29;20234;-71
2022/11/22 11:30:25;;;;;;;4.68;3.33;;;2.60;99.90;;;;;;4936662;29;20244;-70
2022/11/22 11:32:53;;;;;;;2.97;2.88;;;2.60;99.90;;;;;;4936294;29;20214;-70
2022/11/22 11:35:21;;;;;;;3.35;3.05;;;2.60;99.90;;;;;;4936464;29;20693;-70
2022/11/22 11:37:48;;;;;;;4.70;4.28;;;2.60;99.90;;;;;;4932500;29;20217;-70
2022/11/22 11:40:28;;;;;;;4.88;3.75;;;2.60;99.90;;;;;;4924824;29;20201;-72
2022/11/22 11:43:16;;;;;;;9.10;5.65;;;2.70;99.90;;;;;;4917182;29;20698;-71
2022/11/22 11:45:43;;;;;;;2.17;2.17;;;2.60;99.90;;;;;;4910201;29;20789;-72
2022/11/22 11:48:26;;;;;;;7.70;7.10;;;2.70;99.90;;;;;;4917426;29;20631;-70
2022/11/22 11:51:06;;;;;;;2.05;2.05;;;2.70;99.90;;;;;;4917211;29;20256;-72
2022/11/22 11:53:33;;;;;;;9.35;2.95;;;2.70;99.90;;;;;;4926276;29;20221;-72
2022/11/22 11:56:19;;;;;;;2.38;2.35;;;2.70;99.90;;;;;;4935594;29;20226;-71
2022/11/22 11:58:51;;;;;;;4.00;3.90;;;2.70;99.90;;;;;;4936242;29;20210;-71
2022/11/22 12:01:19;;;;;;;3.85;3.65;;;2.70;99.90;;;;;;4936143;29;20567;-69
2022/11/22 12:03:52;;;;;;;4.28;4.00;;;2.70;99.90;;;;;;4935584;29;20623;-70
2022/11/22 12:06:19;;;;;;;3.92;3.70;;;2.70;99.90;;;;;;4921091;29;20234;-70
2022/11/22 12:08:45;;;;;;;6.13;5.60;;;2.80;99.90;;;;;;4924083;29;20222;-70
2022/11/22 12:11:20;;;;;;;6.65;3.08;;;2.80;99.90;;;;;;4916575;29;20230;-70
2022/11/22 12:13:53;;;;;;;2.80;2.67;;;2.80;99.90;;;;;;4916547;29;20218;-71
2022/11/22 12:16:24;;;;;;;9.82;5.35;;;2.80;99.90;;;;;;4916572;29;20243;-71
2022/11/22 12:18:57;;;;;;;3.60;3.40;;;2.80;99.90;;;;;;4916063;29;20218;-70
2022/11/22 12:21:32;;;;;;;8.50;4.68;;;2.80;99.90;;;;;;4925265;29;20211;-70
2022/11/22 12:24:05;;;;;;;5.93;5.05;;;2.80;99.90;;;;;;4926730;29;20202;-70
2022/11/22 12:26:32;;;;;;;7.25;3.72;;;2.80;99.90;;;;;;4916342;29;20246;-71
2022/11/22 12:29:00;;;;;;;3.50;3.00;;;2.90;99.90;;;;;;4917149;29;20238;-71
2022/11/22 12:31:31;;;;;;;6.30;3.83;;;2.90;99.90;;;;;;4916875;29;20211;-72
2022/11/22 12:34:05;;;;;;;8.75;4.38;;;2.90;99.90;;;;;;4915419;29;20641;-71
2022/11/22 12:36:40;;;;;;;7.85;7.28;;;2.90;99.90;;;;;;4926183;29;20234;-71
2022/11/22 12:39:14;;;;;;;3.97;3.78;;;2.90;99.90;;;;;;4935514;29;20225;-71
2022/11/22 12:41:43;;;;;;;4.93;4.53;;;2.90;99.90;;;;;;4935258;29;20214;-71
2022/11/22 12:44:15;;;;;;;1.75;1.65;;;2.90;99.90;;;;;;4934821;29;20572;-71
2022/11/22 12:46:46;;;;;;;4.65;3.80;;;3.00;99.90;;;;;;4935104;29;20241;-69
2022/11/22 12:49:18;;;;;;;9.30;4.10;;;2.90;99.90;;;;;;4918797;29;20230;-71
2022/11/22 12:51:50;;;;;;;7.85;4.95;;;3.00;99.90;;;;;;4920475;29;20333;-71
2022/11/22 12:54:21;;;;;;;17.30;4.50;;;3.00;99.90;;;;;;4934095;29;20217;-70
2022/11/22 12:56:51;;;;;;;3.42;2.28;;;2.90;99.90;;;;;;4922368;29;20676;-69
2022/11/22 12:59:28;;;;;;;4.03;3.90;;;3.00;99.90;;;;;;4932232;29;20206;-70
2022/11/22 13:02:04;;;;;;;6.22;5.45;;;3.00;99.90;;;;;;4929617;29;20217;-69
2022/11/22 13:04:38;;;;;;;4.88;4.55;;;3.00;99.90;;;;;;4925122;29;20210;-70
2022/11/22 13:07:13;;;;;;;4.40;4.07;;;3.00;99.90;;;;;;4934551;29;20229;-70
2022/11/22 13:09:47;;;;;;;4.60;4.30;;;3.00;99.90;;;;;;4934610;29;20569;-70
2022/11/22 13:12:17;;;;;;;5.22;4.82;;;3.00;99.90;;;;;;4934783;29;20297;-70
2022/11/22 13:14:48;;;;;;;8.23;6.05;;;3.00;99.90;;;;;;4934012;29;20690;-70
2022/11/22 13:17:17;;;;;;;4.30;3.60;;;3.00;99.90;;;;;;4932288;29;20241;-71
2022/11/22 13:19:48;;;;;;;8.88;5.38;;;3.00;99.90;;;;;;4927465;29;20229;-71
2022/11/22 13:22:22;;;;;;;4.30;3.85;;;3.00;99.90;;;;;;4934353;29;20234;-71
2022/11/22 13:25:09;;;;;;;5.28;5.15;;;3.00;99.90;;;;;;4933567;29;20224;-70
2022/11/22 13:27:40;;;;;;;4.20;3.88;;;3.00;99.90;;;;;;4934208;29;20221;-71
2022/11/22 13:30:18;;;;;;;8.27;4.25;;;3.00;99.90;;;;;;4934401;29;20578;-70
2022/11/22 13:32:49;;;;;;;5.05;3.15;;;3.00;99.90;;;;;;4915599;29;20206;-70
2022/11/22 13:35:26;;;;;;;9.27;5.40;;;3.00;99.90;;;;;;4931197;29;20241;-71
2022/11/22 13:37:55;;;;;;;3.95;3.75;;;3.00;99.90;;;;;;4933350;29;20206;-70
2022/11/22 13:40:27;;;;;;;11.93;6.93;;;3.00;99.90;;;;;;4934182;29;20210;-72
2022/11/22 13:43:49;;;;;;;9.73;6.30;;;3.00;99.90;;;;;;4933651;29;20218;-72
2022/11/22 13:46:53;;;;;;;2.78;2.67;;;2.90;99.90;;;;;;4873110;29;20231;-71
2022/11/22 13:49:37;;;;;;;3.28;2.70;;;3.00;99.90;;;;;;4915311;29;20265;-71
2022/11/22 13:52:05;;;;;;;6.82;3.25;;;3.00;99.90;;;;;;4914920;29;20207;-71
2022/11/22 13:55:02;;;;;;;4.32;3.55;;;3.00;99.90;;;;;;4914166;29;20218;-72
2022/11/22 13:57:38;;;;;;;5.53;4.88;;;3.00;99.90;;;;;;4915087;29;20218;-71
2022/11/22 14:00:40;;;;;;;4.63;4.25;;;3.00;99.90;;;;;;4921213;29;20635;-70
2022/11/22 14:03:39;;;;;;;5.38;4.93;;;3.00;99.90;;;;;;4895432;29;20215;-70
2022/11/22 14:06:23;;;;;;;5.60;5.10;;;2.90;99.90;;;;;;4895577;29;20238;-68
2022/11/22 14:09:26;;;;;;;2.63;2.47;;;2.90;99.90;;;;;;4896078;29;20219;-68
2022/11/22 14:12:15;;;;;;;3.95;2.95;;;2.90;99.90;;;;;;4911469;29;20298;-68
2022/11/22 14:14:53;;;;;;;10.70;7.60;;;3.00;99.90;;;;;;4917199;29;20210;-68
2022/11/22 14:17:28;;;;;;;7.10;6.47;;;3.00;99.90;;;;;;4933649;29;20221;-69
2022/11/22 14:20:08;;;;;;;6.22;4.97;;;3.00;99.90;;;;;;4934564;29;20213;-69
2022/11/22 14:22:49;;;;;;;5.45;5.18;;;2.90;99.90;;;;;;4933253;29;20560;-70
2022/11/22 14:25:35;;;;;;;3.75;3.55;;;3.00;99.90;;;;;;4911280;29;20250;-69
2022/11/22 14:28:11;;;;;;;4.68;4.47;;;2.90;99.90;;;;;;4922510;29;20235;-68
2022/11/22 14:30:43;;;;;;;2.50;2.47;;;2.90;99.90;;;;;;4915049;29;20241;-68
2022/11/22 14:33:15;;;;;;;4.82;4.53;;;2.90;99.90;;;;;;4914177;29;20230;-69
2022/11/22 14:38:37;;;;;;;13.43;4.85;;;2.90;99.90;;;;;;5081915;27;20553;-69
2022/11/22 14:41:30;;;;;;;5.03;3.17;;;2.90;99.90;;;;;;5087620;28;20208;-69
2022/11/22 14:44:00;;;;;;;6.30;3.25;;;2.90;99.90;;;;;;5087764;28;20301;-70
2022/11/22 14:46:35;;;;;;;14.40;6.25;;;2.80;99.90;;;;;;5087949;28;20656;-72
2022/11/22 14:49:14;;;;;;;7.40;5.22;;;2.80;99.90;;;;;;5088324;28;20204;-68
2022/11/22 14:51:41;;;;;;;11.63;6.22;;;2.80;99.90;;;;;;5086294;28;20209;-69
2022/11/22 14:54:20;;;;;;;8.15;5.90;;;2.80;99.90;;;;;;5087578;28;20200;-70
2022/11/22 14:56:48;;;;;;;4.47;4.30;;;2.80;99.90;;;;;;5080108;28;20301;-70
2022/11/22 14:59:34;;;;;;;6.45;3.70;;;2.80;99.90;;;;;;5087650;28;20684;-71
2022/11/22 15:02:22;;;;;;;7.25;5.55;;;2.80;99.90;;;;;;5087960;28;20212;-70
2022/11/22 15:04:59;;;;;;;4.75;4.28;;;2.80;99.90;;;;;;5075916;28;20560;-71
2022/11/22 15:08:09;;;;;;;13.23;6.75;;;2.80;99.90;;;;;;5087129;28;20663;-71
2022/11/22 15:11:03;;;;;;;7.32;5.07;;;2.80;99.90;;;;;;5024824;28;20221;-71
2022/11/22 15:13:46;;;;;;;7.00;6.50;;;2.80;99.90;;;;;;5024507;28;20220;-71
2022/11/22 15:16:18;;;;;;;5.97;5.45;;;2.80;99.90;;;;;;5075325;28;20225;-71
2022/11/22 15:18:49;;;;;;;3.55;3.28;;;2.80;99.90;;;;;;5087611;28;20518;-71
2022/11/22 15:21:26;;;;;;;8.02;6.78;;;2.80;99.90;;;;;;5087181;28;20295;-69
2022/11/22 15:23:52;;;;;;;9.60;7.45;;;2.80;99.90;;;;;;5086968;28;20232;-71
2022/11/22 15:26:23;;;;;;;11.07;7.80;;;2.70;99.90;;;;;;5086885;28;20224;-70
2022/11/22 15:28:51;;;;;;;13.25;5.65;;;2.70;99.90;;;;;;5087414;28;20300;-71
2022/11/22 15:31:21;;;;;;;6.30;5.13;;;2.70;99.90;;;;;;5087080;28;20394;-71
2022/11/22 15:33:50;;;;;;;5.97;5.50;;;2.70;99.90;;;;;;5086883;28;20216;-70
2022/11/22 15:36:34;;;;;;;11.18;5.60;;;2.70;99.90;;;;;;5086460;28;20236;-70
2022/11/22 15:39:01;;;;;;;6.95;6.50;;;2.70;99.90;;;;;;5087382;28;20621;-70
2022/11/22 15:41:31;;;;;;;10.15;4.57;;;2.70;99.90;;;;;;5086786;28;20209;-69
2022/11/22 15:44:00;;;;;;;5.75;5.22;;;2.70;99.90;;;;;;5086715;28;20205;-69
2022/11/22 15:46:28;;;;;;;7.78;7.28;;;2.60;99.90;;;;;;5078805;28;20232;-69
2022/11/22 15:48:56;;;;;;;7.25;4.35;;;2.60;99.90;;;;;;5078947;28;20206;-69
2022/11/22 15:51:25;;;;;;;5.35;4.60;;;2.60;99.90;;;;;;5075481;28;20318;-69
2022/11/22 15:54:06;;;;;;;10.45;5.05;;;2.50;99.90;;;;;;5082206;28;20216;-69
2022/11/22 15:56:38;;;;;;;4.35;3.95;;;2.50;99.90;;;;;;5078570;28;20368;-69
2022/11/22 15:59:10;;;;;;;6.43;5.70;;;2.40;99.90;;;;;;5082027;28;20209;-69
2022/11/22 16:01:39;;;;;;;5.82;5.28;;;2.40;99.90;;;;;;5077041;28;20216;-69
2022/11/22 16:04:19;;;;;;;11.70;4.97;;;2.30;99.90;;;;;;5075668;28;20239;-69
2022/11/22 16:06:45;;;;;;;4.97;4.40;;;2.30;99.90;;;;;;5074395;28;20324;-69
2022/11/22 16:09:22;;;;;;;8.43;6.05;;;2.30;99.90;;;;;;5073605;28;20220;-69
2022/11/22 16:11:53;;;;;;;5.32;4.95;;;2.30;99.90;;;;;;5074741;28;20695;-69
2022/11/22 16:14:53;;;;;;;9.90;6.68;;;2.20;99.90;;;;;;5074233;28;20220;-69
2022/11/22 16:17:25;;;;;;;7.47;3.85;;;2.10;99.90;;;;;;5012615;28;20219;-69
2022/11/22 16:19:53;;;;;;;4.93;4.50;;;2.10;99.90;;;;;;5011864;28;20210;-69
2022/11/22 16:22:30;;;;;;;11.13;6.72;;;2.10;99.90;;;;;;5040568;28;20204;-69
2022/11/22 16:25:22;;;;;;;2.10;1.80;;;2.10;99.90;;;;;;5070653;28;20201;-69
2022/11/22 16:27:50;;;;;;;4.68;3.78;;;2.00;99.90;;;;;;5073190;28;20212;-69
2022/11/22 16:30:17;;;;;;;6.07;5.65;;;2.00;99.90;;;;;;5073089;28;20553;-69
2022/11/22 16:32:44;;;;;;;3.28;3.03;;;2.00;99.90;;;;;;5072089;28;20666;-69
2022/11/22 16:35:15;;;;;;;5.80;4.18;;;1.90;99.90;;;;;;5072731;28;20213;-69
2022/11/22 16:37:43;;;;;;;8.77;5.32;;;1.90;99.90;;;;;;5071872;28;20696;-69
2022/11/22 16:40:12;;;;;;;2.50;2.33;;;1.90;99.90;;;;;;5072257;28;20213;-69
2022/11/22 16:42:40;;;;;;;9.63;5.45;;;1.90;99.90;;;;;;5071888;28;20354;-69
2022/11/22 16:45:15;;;;;;;6.47;5.93;;;1.90;99.90;;;;;;5072404;28;20688;-70
2022/11/22 16:47:41;;;;;;;6.45;4.80;;;1.80;99.90;;;;;;5072420;28;20200;-69
2022/11/22 16:50:11;;;;;;;6.15;5.50;;;1.80;99.90;;;;;;5072568;28;20576;-69
2022/11/22 16:52:38;;;;;;;4.70;4.50;;;1.80;99.90;;;;;;5071163;28;20651;-69
2022/11/22 16:55:05;;;;;;;1.80;1.77;;;1.80;99.90;;;;;;5071921;28;20240;-69
2022/11/22 16:57:32;;;;;;;3.25;2.88;;;1.80;99.90;;;;;;5072104;28;20566;-69
2022/11/22 16:59:59;;;;;;;9.80;5.32;;;1.80;99.90;;;;;;5070988;28;20538;-68
2022/11/22 17:02:28;;;;;;;3.35;3.15;;;1.80;99.90;;;;;;5071856;28;20274;-69
2022/11/22 17:04:55;;;;;;;5.28;4.97;;;1.70;99.90;;;;;;5071335;28;20572;-70
2022/11/22 17:07:22;;;;;;;4.22;3.88;;;1.70;99.90;;;;;;5071807;28;20201;-70
2022/11/22 17:09:49;;;;;;;4.95;1.23;;;1.70;99.90;;;;;;5071657;28;20211;-69
2022/11/22 17:12:22;;;;;;;3.90;3.20;;;1.70;99.90;;;;;;5071702;28;20244;-68
2022/11/22 17:14:49;;;;;;;5.43;5.22;;;1.70;99.90;;;;;;5067529;28;20205;-70
2022/11/22 17:17:16;;;;;;;6.65;4.53;;;1.70;99.90;;;;;;5072684;28;20225;-70
2022/11/22 17:19:44;;;;;;;11.48;6.40;;;1.70;99.90;;;;;;5072172;28;20227;-68
2022/11/22 17:22:13;;;;;;;2.95;2.85;;;1.70;99.90;;;;;;5071654;28;20303;-69
2022/11/22 17:24:40;;;;;;;8.90;5.20;;;1.70;99.90;;;;;;5071108;28;20223;-70
2022/11/22 17:27:07;;;;;;;5.93;5.25;;;1.70;99.90;;;;;;5071852;28;20616;-69
2022/11/22 17:29:34;;;;;;;3.92;1.73;;;1.70;99.90;;;;;;5071819;28;20212;-70
2022/11/22 17:32:00;;;;;;;10.02;6.43;;;1.70;99.90;;;;;;5071811;28;20209;-71
2022/11/22 17:34:27;;;;;;;9.45;5.00;;;1.70;99.90;;;;;;5071091;28;20704;-71
2022/11/22 17:36:55;;;;;;;9.82;5.32;;;1.80;99.90;;;;;;5070923;28;20653;-69
2022/11/22 17:39:22;;;;;;;5.00;4.38;;;1.80;99.90;;;;;;5071257;28;20225;-70
2022/11/22 17:41:48;;;;;;;8.63;3.78;;;1.80;99.90;;;;;;5071375;28;20223;-70
2022/11/22 17:44:17;;;;;;;8.80;5.47;;;1.90;99.90;;;;;;5071088;28;20237;-70
2022/11/22 17:46:45;;;;;;;8.82;4.43;;;1.90;99.90;;;;;;5063550;28;20239;-70
2022/11/22 17:49:13;;;;;;;8.25;5.45;;;1.90;99.90;;;;;;5071045;28;20197;-70
2022/11/22 17:51:40;;;;;;;3.35;3.15;;;1.90;99.90;;;;;;5070754;28;20243;-69
2022/11/22 17:54:08;;;;;;;12.45;5.03;;;1.80;99.90;;;;;;5070511;28;20261;-70
2022/11/22 17:56:36;;;;;;;15.43;5.80;;;1.90;99.90;;;;;;5070650;28;20225;-69
2022/11/22 17:59:03;;;;;;;8.20;3.55;;;1.90;99.90;;;;;;5071100;28;20345;-68
2022/11/22 18:01:30;;;;;;;4.78;2.63;;;1.90;99.90;;;;;;5071301;28;20262;-70
2022/11/22 18:03:57;;;;;;;8.25;4.65;;;1.90;99.90;;;;;;5071199;28;20205;-71
2022/11/22 18:06:25;;;;;;;8.27;5.22;;;1.90;99.90;;;;;;5070941;28;20225;-70
2022/11/22 18:08:51;;;;;;;13.90;6.40;;;1.80;99.90;;;;;;5071303;28;20206;-70
2022/11/22 18:11:19;;;;;;;15.65;7.22;;;1.80;99.90;;;;;;5070583;28;20216;-69
2022/11/22 18:13:46;;;;;;;5.07;4.72;;;1.80;99.90;;;;;;5070806;28;20205;-69
2022/11/22 18:16:16;;;;;;;7.18;3.75;;;1.90;99.90;;;;;;5071066;28;20232;-69
2022/11/22 18:18:43;;;;;;;3.22;3.15;;;1.90;99.90;;;;;;5071075;28;20227;-70
2022/11/22 18:21:12;;;;;;;7.03;6.20;;;1.90;99.90;;;;;;5070463;28;20211;-70
2022/11/22 18:23:38;;;;;;;3.10;3.00;;;1.80;99.90;;;;;;5070350;28;20214;-70